Time;durP1;ratioP1;P1;durP2;ratioP2;P2;SDS_P1;SDS_P2;PMS_P1;PMS_P2;Temp;Humidity;BMP_temperature;BMP_pressure;BME280_temperature;BME280_humidity;BME280_pressure;Samples;Min_cycle;Max_cycle;Signal;HPM_P1;HPM_P2
2021/11/07 00:09:43;;;;;;;0.05;0.05;;;;;;;;;;5009949;28;20037;-69
2021/11/07 00:12:20;;;;;;;0.00;0.00;;;;;;;;;;5006419;28;20532;-70
2021/11/07 00:14:48;;;;;;;1.75;0.40;;;;;;;;;;5007925;28;20065;-70
2021/11/07 00:17:16;;;;;;;0.35;0.22;;;;;;;;;;5009648;28;20029;-69
2021/11/07 00:19:46;;;;;;;0.40;0.40;;;;;;;;;;5007050;28;20030;-70
2021/11/07 00:22:30;;;;;;;0.70;0.52;;;;;;;;;;5009224;28;20021;-69
2021/11/07 00:27:32;;;;;;;0.05;0.05;;;;;;;;;;5009163;28;20062;-69
2021/11/07 00:30:14;;;;;;;0.10;0.10;;;;;;;;;;5009449;28;20374;-69
2021/11/07 00:38:18;;;;;;;0.93;0.93;;;;;;;;;;5007612;28;20512;-70
2021/11/07 00:40:57;;;;;;;0.35;0.35;;;;;;;;;;5012726;28;20030;-69
2021/11/07 00:46:44;;;;;;;0.38;0.38;;;;;;;;;;5014458;28;20041;-69
2021/11/07 00:51:36;;;;;;;0.03;0.03;;;;;;;;;;5008589;28;20116;-70
2021/11/07 00:54:17;;;;;;;0.10;0.10;;;;;;;;;;5009925;28;20508;-69
2021/11/07 00:56:49;;;;;;;0.30;0.25;;;;;;;;;;5008706;28;20247;-69
2021/11/07 01:01:55;;;;;;;0.40;0.40;;;;;;;;;;5008222;28;20030;-69
2021/11/07 01:04:21;;;;;;;0.38;0.38;;;;;;;;;;5008731;28;20298;-70
2021/11/07 01:06:48;;;;;;;0.13;0.13;;;;;;;;;;5009169;28;20587;-70
2021/11/07 01:09:14;;;;;;;0.15;0.15;;;;;;;;;;5009061;28;20053;-70
2021/11/07 01:11:40;;;;;;;0.57;0.57;;;;;;;;;;5008421;28;20037;-70
2021/11/07 01:14:08;;;;;;;0.25;0.25;;;;;;;;;;5008497;28;20032;-70
2021/11/07 01:16:34;;;;;;;0.88;0.57;;;;;;;;;;5008117;28;20083;-69
2021/11/07 01:19:00;;;;;;;1.05;1.00;;;;;;;;;;5008251;28;20469;-70
2021/11/07 01:21:29;;;;;;;0.20;0.20;;;;;;;;;;5012571;28;20557;-69
2021/11/07 01:23:59;;;;;;;0.60;0.35;;;;;;;;;;5008695;28;20512;-69
2021/11/07 01:26:31;;;;;;;0.00;0.00;;;;;;;;;;5008825;28;20069;-68
2021/11/07 01:29:30;;;;;;;0.95;0.73;;;;;;;;;;5007665;28;20026;-69
2021/11/07 01:31:50;;;;;;;0.10;0.10;;;;;;;;;;5009357;28;20484;-68
2021/11/07 01:37:12;;;;;;;0.10;0.10;;;;;;;;;;5008359;28;20096;-68
2021/11/07 01:40:27;;;;;;;1.02;0.93;;;;;;;;;;5008370;28;20030;-69
2021/11/07 01:42:33;;;;;;;0.52;0.52;;;;;;;;;;5012611;28;20038;-69
2021/11/07 01:45:06;;;;;;;0.73;0.65;;;;;;;;;;5007358;28;20022;-68
2021/11/07 01:47:36;;;;;;;0.22;0.22;;;;;;;;;;5008475;28;20121;-69
2021/11/07 01:50:03;;;;;;;0.60;0.60;;;;;;;;;;5010992;28;20213;-69
2021/11/07 01:52:29;;;;;;;0.15;0.15;;;;;;;;;;5011656;28;20030;-68
2021/11/07 01:54:59;;;;;;;0.30;0.30;;;;;;;;;;5013334;28;20018;-68
2021/11/07 01:57:26;;;;;;;0.65;0.65;;;;;;;;;;5012234;28;20062;-69
2021/11/07 01:59:55;;;;;;;0.50;0.50;;;;;;;;;;5011304;28;20040;-69
2021/11/07 02:02:22;;;;;;;1.30;0.73;;;;;;;;;;5011423;28;20033;-69
2021/11/07 02:04:49;;;;;;;0.47;0.28;;;;;;;;;;5011236;28;20048;-68
2021/11/07 02:07:15;;;;;;;0.43;0.43;;;;;;;;;;5013630;28;21627;-69
2021/11/07 02:09:41;;;;;;;0.30;0.30;;;;;;;;;;5011389;28;20469;-68
2021/11/07 02:12:08;;;;;;;0.10;0.10;;;;;;;;;;5011075;28;20025;-68
2021/11/07 02:14:34;;;;;;;0.45;0.45;;;;;;;;;;5015389;28;20022;-69
2021/11/07 02:17:00;;;;;;;0.20;0.20;;;;;;;;;;5011186;28;20104;-69
2021/11/07 02:19:27;;;;;;;0.25;0.25;;;;;;;;;;5011357;28;20030;-68
2021/11/07 02:21:53;;;;;;;0.90;0.40;;;;;;;;;;5011272;28;20068;-68
2021/11/07 02:24:19;;;;;;;1.65;1.02;;;;;;;;;;5012953;28;20061;-69
2021/11/07 02:26:56;;;;;;;0.17;0.17;;;;;;;;;;5014472;28;20570;-68
2021/11/07 02:29:23;;;;;;;0.10;0.10;;;;;;;;;;5012142;28;20053;-69
2021/11/07 02:31:50;;;;;;;0.10;0.10;;;;;;;;;;5010499;28;20021;-68
2021/11/07 02:34:16;;;;;;;0.68;0.68;;;;;;;;;;5010306;28;20174;-68
2021/11/07 02:36:43;;;;;;;7.13;1.33;;;;;;;;;;5011638;28;20026;-69
2021/11/07 02:39:10;;;;;;;0.45;0.45;;;;;;;;;;5010545;28;20397;-68
2021/11/07 02:41:36;;;;;;;0.43;0.28;;;;;;;;;;5011623;28;20433;-70
2021/11/07 02:44:02;;;;;;;0.20;0.20;;;;;;;;;;5013945;28;20064;-69
2021/11/07 02:46:28;;;;;;;1.65;0.55;;;;;;;;;;5010634;28;20036;-68
2021/11/07 02:48:56;;;;;;;0.35;0.35;;;;;;;;;;5011528;28;20473;-69
2021/11/07 02:51:29;;;;;;;0.35;0.35;;;;;;;;;;5013414;28;20037;-69
2021/11/07 02:53:55;;;;;;;0.38;0.38;;;;;;;;;;5011021;28;20083;-69
2021/11/07 02:56:21;;;;;;;0.38;0.38;;;;;;;;;;5011397;28;20037;-69
2021/11/07 02:58:48;;;;;;;0.30;0.30;;;;;;;;;;5000716;28;20163;-68
2021/11/07 03:01:15;;;;;;;0.28;0.28;;;;;;;;;;5012283;28;20037;-69
2021/11/07 03:03:41;;;;;;;0.28;0.22;;;;;;;;;;5010618;28;20097;-68
2021/11/07 03:06:07;;;;;;;0.30;0.30;;;;;;;;;;5010138;28;20038;-68
2021/11/07 03:08:40;;;;;;;1.75;1.35;;;;;;;;;;5010190;28;20022;-68
2021/11/07 03:11:06;;;;;;;0.00;0.00;;;;;;;;;;5009381;28;20111;-68
2021/11/07 03:13:32;;;;;;;0.45;0.45;;;;;;;;;;5010478;28;20657;-69
2021/11/07 03:16:04;;;;;;;2.30;1.05;;;;;;;;;;5008545;28;20036;-69
2021/11/07 03:18:31;;;;;;;0.35;0.35;;;;;;;;;;5018601;28;20029;-69
2021/11/07 03:20:57;;;;;;;0.22;0.22;;;;;;;;;;5011005;28;20061;-68
2021/11/07 03:23:23;;;;;;;0.20;0.20;;;;;;;;;;5010025;28;20030;-69
2021/11/07 03:25:58;;;;;;;0.45;0.43;;;;;;;;;;5009988;28;20051;-69
2021/11/07 03:28:24;;;;;;;0.13;0.13;;;;;;;;;;5002873;28;20784;-68
2021/11/07 03:31:14;;;;;;;0.77;0.77;;;;;;;;;;5010132;28;20014;-69
2021/11/07 03:33:48;;;;;;;0.60;0.55;;;;;;;;;;5010054;28;20493;-69
2021/11/07 03:36:17;;;;;;;0.10;0.10;;;;;;;;;;5008835;28;20038;-69
2021/11/07 03:38:44;;;;;;;0.32;0.32;;;;;;;;;;5008895;28;20053;-68
2021/11/07 03:41:10;;;;;;;0.40;0.40;;;;;;;;;;5001828;28;20041;-69
2021/11/07 03:43:36;;;;;;;0.70;0.52;;;;;;;;;;5008953;28;20049;-68
2021/11/07 03:46:02;;;;;;;0.55;0.10;;;;;;;;;;5009284;28;20161;-68
2021/11/07 03:48:28;;;;;;;1.98;0.55;;;;;;;;;;5009834;28;20026;-68
2021/11/07 03:50:54;;;;;;;0.00;0.00;;;;;;;;;;5008964;28;20432;-68
2021/11/07 03:53:21;;;;;;;4.38;0.25;;;;;;;;;;5011439;28;20033;-70
2021/11/07 03:55:47;;;;;;;0.20;0.20;;;;;;;;;;5009732;28;20033;-68
2021/11/07 03:58:13;;;;;;;0.75;0.45;;;;;;;;;;5009629;28;20030;-68
2021/11/07 04:00:39;;;;;;;0.52;0.52;;;;;;;;;;5013240;28;20116;-68
2021/11/07 04:03:05;;;;;;;0.10;0.10;;;;;;;;;;5011347;28;20030;-68
2021/11/07 04:05:32;;;;;;;1.85;0.43;;;;;;;;;;5009011;28;20149;-69
2021/11/07 04:07:58;;;;;;;0.00;0.00;;;;;;;;;;5009846;28;20492;-69
2021/11/07 04:10:25;;;;;;;0.63;0.63;;;;;;;;;;5009858;28;20033;-70
2021/11/07 04:12:52;;;;;;;0.00;0.00;;;;;;;;;;5007922;28;20030;-69
2021/11/07 04:15:18;;;;;;;0.10;0.10;;;;;;;;;;5008459;28;20022;-69
2021/11/07 04:17:43;;;;;;;0.55;0.40;;;;;;;;;;5009631;28;20018;-68
2021/11/07 04:20:10;;;;;;;0.57;0.35;;;;;;;;;;5009351;28;20046;-69
2021/11/07 04:22:37;;;;;;;0.20;0.20;;;;;;;;;;5008844;28;20096;-69
2021/11/07 04:25:04;;;;;;;0.00;0.00;;;;;;;;;;5011831;28;20028;-69
2021/11/07 04:27:33;;;;;;;0.17;0.17;;;;;;;;;;5011139;28;20504;-69
2021/11/07 04:29:59;;;;;;;0.00;0.00;;;;;;;;;;5009467;28;20030;-68
2021/11/07 04:32:25;;;;;;;0.38;0.38;;;;;;;;;;5008936;28;20044;-69
2021/11/07 04:34:51;;;;;;;0.28;0.28;;;;;;;;;;5009186;28;20022;-69
2021/11/07 04:37:18;;;;;;;0.00;0.00;;;;;;;;;;5009067;28;20101;-68
2021/11/07 04:39:45;;;;;;;0.28;0.28;;;;;;;;;;5008452;28;20481;-68
2021/11/07 04:42:11;;;;;;;0.47;0.30;;;;;;;;;;5009214;28;20038;-69
2021/11/07 04:44:37;;;;;;;1.30;1.20;;;;;;;;;;5008905;28;20068;-69
2021/11/07 04:47:03;;;;;;;0.20;0.20;;;;;;;;;;5010916;28;20050;-69
2021/11/07 04:49:29;;;;;;;1.15;0.47;;;;;;;;;;5008994;28;20026;-69
2021/11/07 04:51:55;;;;;;;0.65;0.55;;;;;;;;;;5009232;28;20032;-69
2021/11/07 04:54:22;;;;;;;4.57;1.30;;;;;;;;;;5008359;28;20026;-69
2021/11/07 04:56:47;;;;;;;0.10;0.10;;;;;;;;;;5007954;28;20041;-69
2021/11/07 04:59:13;;;;;;;1.45;0.55;;;;;;;;;;5005394;28;20040;-68
2021/11/07 05:01:39;;;;;;;0.17;0.17;;;;;;;;;;5013572;28;20370;-69
2021/11/07 05:04:07;;;;;;;0.28;0.28;;;;;;;;;;5008029;28;20057;-69
2021/11/07 05:06:34;;;;;;;0.00;0.00;;;;;;;;;;5010203;28;20033;-70
2021/11/07 05:09:00;;;;;;;0.75;0.75;;;;;;;;;;5008132;28;20026;-69
2021/11/07 05:11:26;;;;;;;0.88;0.43;;;;;;;;;;5008707;28;20493;-68
2021/11/07 05:13:52;;;;;;;0.47;0.47;;;;;;;;;;5007141;28;20839;-69
2021/11/07 05:16:19;;;;;;;0.25;0.25;;;;;;;;;;5007828;28;20112;-69
2021/11/07 05:18:44;;;;;;;0.10;0.10;;;;;;;;;;5008591;28;20128;-69
2021/11/07 05:21:11;;;;;;;0.10;0.10;;;;;;;;;;5008077;28;20192;-68
2021/11/07 05:23:37;;;;;;;0.20;0.20;;;;;;;;;;5013605;28;20041;-69
2021/11/07 05:26:03;;;;;;;0.45;0.45;;;;;;;;;;5008075;28;20029;-70
2021/11/07 05:28:29;;;;;;;0.20;0.20;;;;;;;;;;5008113;28;20392;-69
2021/11/07 05:30:55;;;;;;;0.20;0.20;;;;;;;;;;5007827;28;20037;-69
2021/11/07 05:33:22;;;;;;;0.00;0.00;;;;;;;;;;5008102;28;20037;-69
2021/11/07 05:35:48;;;;;;;1.15;0.77;;;;;;;;;;5008254;28;20028;-69
2021/11/07 05:38:13;;;;;;;0.88;0.20;;;;;;;;;;5008289;28;20037;-69
2021/11/07 05:40:39;;;;;;;0.70;0.60;;;;;;;;;;5008038;28;20083;-69
2021/11/07 05:43:05;;;;;;;0.10;0.10;;;;;;;;;;5007201;28;20481;-69
2021/11/07 05:45:32;;;;;;;0.20;0.20;;;;;;;;;;5008255;28;20026;-69
2021/11/07 05:47:58;;;;;;;0.00;0.00;;;;;;;;;;5011293;28;20073;-70
2021/11/07 05:50:24;;;;;;;0.10;0.10;;;;;;;;;;5007948;28;20026;-69
2021/11/07 05:52:51;;;;;;;0.93;0.57;;;;;;;;;;5007660;28;20062;-70
2021/11/07 05:55:17;;;;;;;0.08;0.08;;;;;;;;;;5008872;28;20022;-69
2021/11/07 05:57:44;;;;;;;0.10;0.10;;;;;;;;;;5008000;28;20104;-69
2021/11/07 06:00:11;;;;;;;0.30;0.30;;;;;;;;;;5007630;28;20037;-69
2021/11/07 06:02:37;;;;;;;0.10;0.10;;;;;;;;;;5007950;28;20508;-69
2021/11/07 06:05:03;;;;;;;0.05;0.05;;;;;;;;;;5007635;28;20061;-69
2021/11/07 06:07:29;;;;;;;0.00;0.00;;;;;;;;;;5007120;28;20044;-69
2021/11/07 06:09:55;;;;;;;0.47;0.47;;;;;;;;;;5007951;28;20022;-68
2021/11/07 06:12:21;;;;;;;0.10;0.10;;;;;;;;;;5016456;28;20029;-69
2021/11/07 06:14:47;;;;;;;0.35;0.35;;;;;;;;;;5008411;28;20420;-69
2021/11/07 06:17:12;;;;;;;0.70;0.60;;;;;;;;;;5006972;28;20038;-69
2021/11/07 06:19:39;;;;;;;0.28;0.28;;;;;;;;;;5006906;28;20030;-69
2021/11/07 06:22:05;;;;;;;1.52;0.25;;;;;;;;;;5007582;28;20038;-69
2021/11/07 06:24:32;;;;;;;0.32;0.32;;;;;;;;;;5007968;28;20026;-69
2021/11/07 06:26:58;;;;;;;1.48;1.35;;;;;;;;;;5007224;28;20452;-69
2021/11/07 06:29:25;;;;;;;0.55;0.55;;;;;;;;;;5007262;28;20041;-69
2021/11/07 06:31:52;;;;;;;0.15;0.10;;;;;;;;;;5008464;28;20042;-70
2021/11/07 06:34:19;;;;;;;0.43;0.30;;;;;;;;;;5008342;28;20113;-69
2021/11/07 06:36:45;;;;;;;0.50;0.50;;;;;;;;;;5015107;28;20112;-68
2021/11/07 06:39:11;;;;;;;0.10;0.10;;;;;;;;;;5011684;28;20034;-73
2021/11/07 06:41:37;;;;;;;0.38;0.38;;;;;;;;;;5010068;28;20038;-69
2021/11/07 06:44:03;;;;;;;0.82;0.80;;;;;;;;;;5011289;28;20033;-69
2021/11/07 06:46:29;;;;;;;0.00;0.00;;;;;;;;;;5009960;28;20026;-69
2021/11/07 06:48:55;;;;;;;0.75;0.55;;;;;;;;;;5011024;28;20035;-68
2021/11/07 06:51:22;;;;;;;0.30;0.30;;;;;;;;;;5010643;28;20026;-68
2021/11/07 06:53:48;;;;;;;0.00;0.00;;;;;;;;;;5011020;28;20026;-69
2021/11/07 06:56:14;;;;;;;0.00;0.00;;;;;;;;;;5008391;28;20058;-69
2021/11/07 06:58:41;;;;;;;0.70;0.57;;;;;;;;;;5010325;28;20026;-68
2021/11/07 07:01:07;;;;;;;0.00;0.00;;;;;;;;;;5010384;28;20109;-69
2021/11/07 07:03:33;;;;;;;0.50;0.50;;;;;;;;;;5011121;28;20619;-69
2021/11/07 07:05:59;;;;;;;0.73;0.47;;;;;;;;;;5010363;28;20448;-69
2021/11/07 07:08:31;;;;;;;0.10;0.10;;;;;;;;;;5010547;28;20107;-69
2021/11/07 07:11:05;;;;;;;;;;;;;;;;;;5010473;28;20037;-68
2021/11/07 07:13:36;;;;;;;0.40;0.20;;;;;;;;;;5010483;28;19920;-69
2021/11/07 07:19:05;;;;;;;0.20;0.20;;;;;;;;;;5008408;28;20034;-69
2021/11/07 07:32:09;;;;;;;0.82;0.65;;;;;;;;;;5004127;28;20113;-69
2021/11/07 07:34:38;;;;;;;0.05;0.05;;;;;;;;;;5008502;28;20044;-69
2021/11/07 07:37:04;;;;;;;0.98;0.20;;;;;;;;;;5009550;28;20038;-69
2021/11/07 07:39:30;;;;;;;0.00;0.00;;;;;;;;;;5010943;28;20392;-70
2021/11/07 07:41:55;;;;;;;0.55;0.45;;;;;;;;;;5010348;28;20033;-69
2021/11/07 07:44:22;;;;;;;0.15;0.15;;;;;;;;;;5010049;28;20030;-69
2021/11/07 07:46:48;;;;;;;0.03;0.03;;;;;;;;;;5009283;28;20152;-69
2021/11/07 07:49:16;;;;;;;0.03;0.03;;;;;;;;;;5007899;28;20374;-69
2021/11/07 07:51:43;;;;;;;0.75;0.20;;;;;;;;;;5009709;28;20026;-69
2021/11/07 07:54:09;;;;;;;0.20;0.20;;;;;;;;;;5009342;28;20101;-68
2021/11/07 07:56:36;;;;;;;0.30;0.30;;;;;;;;;;5009542;28;20040;-69
2021/11/07 07:59:03;;;;;;;0.30;0.30;;;;;;;;;;5009122;28;20499;-69
2021/11/07 08:01:29;;;;;;;0.60;0.60;;;;;;;;;;5009525;28;20135;-69
2021/11/07 08:03:55;;;;;;;0.10;0.10;;;;;;;;;;5010556;28;20638;-70
2021/11/07 08:06:21;;;;;;;0.32;0.32;;;;;;;;;;5010026;28;20511;-70
2021/11/07 08:08:47;;;;;;;0.00;0.00;;;;;;;;;;5009253;28;21579;-69
2021/11/07 08:11:14;;;;;;;0.15;0.15;;;;;;;;;;5009626;28;20117;-69
2021/11/07 08:13:40;;;;;;;0.30;0.15;;;;;;;;;;5013239;28;20026;-70
2021/11/07 08:16:06;;;;;;;0.00;0.00;;;;;;;;;;5009133;28;20033;-69
2021/11/07 08:18:33;;;;;;;0.50;0.45;;;;;;;;;;5009038;28;20042;-70
2021/11/07 08:20:59;;;;;;;4.35;1.35;;;;;;;;;;5008417;28;20408;-69
2021/11/07 08:23:25;;;;;;;0.10;0.10;;;;;;;;;;5005239;28;20473;-70
2021/11/07 08:25:51;;;;;;;0.00;0.00;;;;;;;;;;5009073;28;20033;-70
2021/11/07 08:28:20;;;;;;;0.30;0.30;;;;;;;;;;5008844;28;20092;-69
2021/11/07 08:30:48;;;;;;;0.50;0.50;;;;;;;;;;5017968;28;20042;-70
2021/11/07 08:33:15;;;;;;;0.73;0.30;;;;;;;;;;5009210;28;20421;-69
2021/11/07 08:35:42;;;;;;;0.00;0.00;;;;;;;;;;5009447;28;20064;-70
2021/11/07 08:38:12;;;;;;;0.40;0.40;;;;;;;;;;5007943;28;20737;-69
2021/11/07 08:40:45;;;;;;;3.63;0.32;;;;;;;;;;5006397;28;20248;-70
2021/11/07 09:00:16;;;;;;;0.00;0.00;;;;;;;;;;5008118;28;20091;-69
2021/11/07 09:00:19;;;;;;;0.20;0.20;;;;;;;;;;5019609;28;20040;-69
2021/11/07 09:02:59;;;;;;;0.00;0.00;;;;;;;;;;5016249;28;20029;-69
2021/11/07 09:05:54;;;;;;;3.13;1.27;;;;;;;;;;5013539;28;20495;-68
2021/11/07 09:08:22;;;;;;;0.80;0.63;;;;;;;;;;5005108;28;20042;-68
2021/11/07 09:10:48;;;;;;;0.68;0.68;;;;;;;;;;5011224;28;20028;-69
2021/11/07 09:13:14;;;;;;;0.63;0.63;;;;;;;;;;5013621;28;20412;-69
2021/11/07 09:15:42;;;;;;;0.20;0.20;;;;;;;;;;5014650;28;20022;-68
2021/11/07 09:18:08;;;;;;;0.40;0.40;;;;;;;;;;5009867;28;20480;-68
2021/11/07 09:20:42;;;;;;;0.32;0.32;;;;;;;;;;5010663;28;20490;-67
2021/11/07 09:28:46;;;;;;;0.13;0.13;;;;;;;;;;5006944;28;20030;-68
2021/11/07 09:31:29;;;;;;;0.20;0.20;;;;;;;;;;5007732;28;20029;-68
2021/11/07 09:36:30;;;;;;;0.75;0.75;;;;;;;;;;5003720;28;20070;-68
2021/11/07 09:44:16;;;;;;;7.00;0.70;;;;;;;;;;5007881;28;20045;-69
2021/11/07 09:49:16;;;;;;;0.20;0.20;;;;;;;;;;5008079;28;20033;-69
2021/11/07 09:51:44;;;;;;;0.35;0.20;;;;;;;;;;5006898;28;20030;-68
2021/11/07 09:54:12;;;;;;;0.00;0.00;;;;;;;;;;5009966;28;20092;-69
2021/11/07 09:56:44;;;;;;;0.00;0.00;;;;;;;;;;5007191;28;20034;-70
2021/11/07 09:59:10;;;;;;;0.10;0.10;;;;;;;;;;5007852;28;20542;-70
2021/11/07 10:01:36;;;;;;;0.10;0.10;;;;;;;;;;5006514;28;20034;-75
2021/11/07 10:04:03;;;;;;;0.10;0.10;;;;;;;;;;5008021;28;20060;-72
2021/11/07 10:06:52;;;;;;;0.30;0.30;;;;;;;;;;5007592;28;20030;-71
2021/11/07 10:09:37;;;;;;;0.57;0.57;;;;;;;;;;5010242;28;20032;-71
2021/11/07 10:12:09;;;;;;;0.20;0.20;;;;;;;;;;5011061;28;20033;-71
2021/11/07 10:14:38;;;;;;;0.68;0.68;;;;;;;;;;5009724;28;20481;-70
2021/11/07 10:17:05;;;;;;;0.95;0.50;;;;;;;;;;5009134;28;20038;-71
2021/11/07 10:19:36;;;;;;;0.17;0.17;;;;;;;;;;5009988;28;20042;-71
2021/11/07 10:22:03;;;;;;;2.63;0.52;;;;;;;;;;5014647;28;20435;-71
2021/11/07 10:24:34;;;;;;;0.10;0.10;;;;;;;;;;5011891;28;20045;-71
2021/11/07 10:27:07;;;;;;;0.22;0.15;;;;;;;;;;5010897;28;20034;-71
2021/11/07 10:29:38;;;;;;;2.47;1.13;;;;;;;;;;5016078;28;20033;-70
2021/11/07 10:32:13;;;;;;;0.22;0.22;;;;;;;;;;5015055;28;20059;-71
2021/11/07 10:37:57;;;;;;;0.10;0.10;;;;;;;;;;5005815;28;20413;-72
2021/11/07 10:40:32;;;;;;;0.10;0.10;;;;;;;;;;5007509;28;20030;-73
2021/11/07 10:45:48;;;;;;;0.00;0.00;;;;;;;;;;5009649;28;20113;-71
2021/11/07 10:53:45;;;;;;;2.90;0.95;;;;;;;;;;5004826;28;20123;-71
2021/11/07 10:56:12;;;;;;;2.13;1.55;;;;;;;;;;5020381;28;20148;-71
2021/11/07 10:58:40;;;;;;;0.20;0.20;;;;;;;;;;5006724;28;20049;-76
2021/11/07 11:01:07;;;;;;;0.00;0.00;;;;;;;;;;5009789;28;20030;-76
2021/11/07 11:03:40;;;;;;;0.82;0.40;;;;;;;;;;5012090;28;20026;-70
2021/11/07 11:06:13;;;;;;;0.70;0.30;;;;;;;;;;5008618;28;20120;-71
2021/11/07 11:09:02;;;;;;;0.57;0.57;;;;;;;;;;5015747;28;20029;-70
2021/11/07 11:14:07;;;;;;;0.10;0.10;;;;;;;;;;5011698;28;20022;-71
2021/11/07 11:22:11;;;;;;;0.00;0.00;;;;;;;;;;5016397;28;20045;-70
2021/11/07 11:25:00;;;;;;;0.05;0.05;;;;;;;;;;5005468;28;20081;-73
2021/11/07 11:27:41;;;;;;;0.00;0.00;;;;;;;;;;5002214;28;20124;-75
2021/11/07 11:30:20;;;;;;;0.00;0.00;;;;;;;;;;5008013;28;20045;-74
2021/11/07 11:33:11;;;;;;;0.00;0.00;;;;;;;;;;5012302;28;20538;-74
2021/11/07 11:35:47;;;;;;;0.10;0.10;;;;;;;;;;5009587;28;20039;-75
2021/11/07 11:38:24;;;;;;;0.00;0.00;;;;;;;;;;5010633;28;20516;-75
2021/11/07 11:41:03;;;;;;;0.20;0.20;;;;;;;;;;5013453;28;20033;-74
2021/11/07 11:43:34;;;;;;;0.08;0.08;;;;;;;;;;5006993;28;20107;-74
2021/11/07 11:46:09;;;;;;;0.15;0.15;;;;;;;;;;5003248;28;20026;-74
2021/11/07 11:49:13;;;;;;;0.20;0.20;;;;;;;;;;4976101;28;20034;-72
2021/11/07 11:51:52;;;;;;;0.00;0.00;;;;;;;;;;5003393;28;20030;-75
2021/11/07 11:59:53;;;;;;;0.35;0.35;;;;;;;;;;4996415;28;20125;-73
2021/11/07 12:04:58;;;;;;;0.75;0.55;;;;;;;;;;5003638;28;20493;-74
2021/11/07 12:07:32;;;;;;;0.08;0.08;;;;;;;;;;5001878;28;20137;-70
2021/11/07 12:10:08;;;;;;;0.20;0.20;;;;;;;;;;5004324;28;20988;-72
2021/11/07 12:12:52;;;;;;;0.00;0.00;;;;;;;;;;5003707;28;20109;-72
2021/11/07 12:18:00;;;;;;;0.13;0.13;;;;;;;;;;5004441;28;20038;-75
2021/11/07 12:20:26;;;;;;;0.00;0.00;;;;;;;;;;5005116;28;20046;-76
2021/11/07 12:23:12;;;;;;;0.00;0.00;;;;;;;;;;5005102;28;20029;-75
2021/11/07 12:25:38;;;;;;;0.00;0.00;;;;;;;;;;5006078;28;20038;-74
2021/11/07 12:28:04;;;;;;;0.10;0.10;;;;;;;;;;5006139;28;20041;-75
2021/11/07 12:30:32;;;;;;;0.00;0.00;;;;;;;;;;5004256;28;20517;-75
2021/11/07 12:33:07;;;;;;;0.93;0.85;;;;;;;;;;5004194;28;20085;-74
2021/11/07 12:35:38;;;;;;;0.38;0.38;;;;;;;;;;5004931;28;20032;-76
2021/11/07 12:41:11;;;;;;;0.00;0.00;;;;;;;;;;5004131;28;20527;-76
2021/11/07 12:43:45;;;;;;;0.20;0.20;;;;;;;;;;5000497;28;20022;-76
2021/11/07 12:49:04;;;;;;;0.03;0.03;;;;;;;;;;5006864;28;20147;-74
2021/11/07 12:51:30;;;;;;;0.52;0.52;;;;;;;;;;5005474;28;20029;-74
2021/11/07 12:53:57;;;;;;;0.10;0.10;;;;;;;;;;5005441;28;20033;-75
2021/11/07 12:56:41;;;;;;;0.00;0.00;;;;;;;;;;5004757;28;20065;-73
2021/11/07 12:59:09;;;;;;;0.10;0.10;;;;;;;;;;5005711;28;20524;-75
2021/11/07 13:01:54;;;;;;;0.35;0.35;;;;;;;;;;5005298;28;20030;-74
2021/11/07 13:04:22;;;;;;;0.08;0.08;;;;;;;;;;5004154;28;20030;-74
2021/11/07 13:06:51;;;;;;;0.00;0.00;;;;;;;;;;5002710;28;20026;-70
2021/11/07 13:09:20;;;;;;;0.03;0.03;;;;;;;;;;5005308;28;20441;-74
2021/11/07 13:11:50;;;;;;;0.50;0.50;;;;;;;;;;5006699;28;20026;-73
2021/11/07 13:17:39;;;;;;;27.15;2.03;;;;;;;;;;4988407;28;20506;-74
2021/11/07 13:20:15;;;;;;;0.00;0.00;;;;;;;;;;5006995;28;20049;-75
2021/11/07 13:23:09;;;;;;;0.00;0.00;;;;;;;;;;5004760;28;20037;-73
2021/11/07 13:30:54;;;;;;;;;;;;;;;;;;5005992;28;20094;-76
2021/11/07 13:33:22;;;;;;;0.00;0.00;;;;;;;;;;5004942;28;19917;-75
2021/11/07 13:35:55;;;;;;;0.00;0.00;;;;;;;;;;5006560;28;20396;-74
2021/11/07 13:38:21;;;;;;;0.32;0.32;;;;;;;;;;5002825;28;20030;-74
2021/11/07 13:40:47;;;;;;;0.20;0.20;;;;;;;;;;5005939;28;20030;-72
2021/11/07 13:43:20;;;;;;;5.72;0.80;;;;;;;;;;5010572;28;20029;-72
2021/11/07 13:45:49;;;;;;;0.10;0.10;;;;;;;;;;5015990;28;20148;-72
2021/11/07 13:48:22;;;;;;;0.20;0.20;;;;;;;;;;5013037;28;20116;-73
2021/11/07 13:50:48;;;;;;;0.10;0.10;;;;;;;;;;5009026;28;20384;-73
2021/11/07 13:53:19;;;;;;;0.00;0.00;;;;;;;;;;5011481;28;20709;-73
2021/11/07 13:55:45;;;;;;;0.05;0.05;;;;;;;;;;5012454;28;20033;-74
2021/11/07 13:58:12;;;;;;;0.00;0.00;;;;;;;;;;5011379;28;20478;-73
2021/11/07 14:00:38;;;;;;;0.88;0.32;;;;;;;;;;5014164;28;20061;-72
2021/11/07 14:03:04;;;;;;;0.35;0.35;;;;;;;;;;5014497;28;20022;-76
2021/11/07 14:05:30;;;;;;;0.10;0.10;;;;;;;;;;5013229;28;20041;-71
2021/11/07 14:08:06;;;;;;;0.20;0.20;;;;;;;;;;5010336;28;20049;-70
2021/11/07 14:10:33;;;;;;;0.20;0.20;;;;;;;;;;5017719;28;20040;-71
2021/11/07 14:13:01;;;;;;;0.10;0.10;;;;;;;;;;5011775;28;20057;-72
2021/11/07 14:15:37;;;;;;;2.20;0.60;;;;;;;;;;5013634;28;20072;-72
2021/11/07 14:18:08;;;;;;;0.00;0.00;;;;;;;;;;5011481;28;20117;-71
2021/11/07 14:20:36;;;;;;;0.13;0.13;;;;;;;;;;5013226;28;20065;-71
2021/11/07 14:23:11;;;;;;;1.02;0.80;;;;;;;;;;5012711;28;20026;-71
2021/11/07 14:25:48;;;;;;;2.90;0.75;;;;;;;;;;5011642;28;20014;-71
2021/11/07 14:28:24;;;;;;;0.22;0.22;;;;;;;;;;5009925;28;20029;-72
2021/11/07 14:30:51;;;;;;;0.00;0.00;;;;;;;;;;5010308;28;20017;-73
2021/11/07 14:33:43;;;;;;;0.10;0.10;;;;;;;;;;5011239;28;20045;-75
2021/11/07 14:36:23;;;;;;;3.30;0.95;;;;;;;;;;5005230;28;20129;-74
2021/11/07 14:39:00;;;;;;;0.15;0.15;;;;;;;;;;5015327;28;20028;-74
2021/11/07 14:41:34;;;;;;;0.08;0.08;;;;;;;;;;5010820;28;20040;-74
2021/11/07 14:44:12;;;;;;;0.00;0.00;;;;;;;;;;5014901;28;20037;-73
2021/11/07 14:46:47;;;;;;;0.00;0.00;;;;;;;;;;5008523;28;20038;-73
2021/11/07 14:49:29;;;;;;;0.00;0.00;;;;;;;;;;5007653;28;20021;-72
2021/11/07 14:52:23;;;;;;;0.10;0.10;;;;;;;;;;5003612;28;20026;-73
2021/11/07 14:54:56;;;;;;;0.00;0.00;;;;;;;;;;5002934;28;20063;-74
2021/11/07 15:00:18;;;;;;;1.00;0.90;;;;;;;;;;5006419;28;20038;-74
2021/11/07 15:02:55;;;;;;;0.00;0.00;;;;;;;;;;5005446;28;20044;-73
2021/11/07 15:05:29;;;;;;;0.00;0.00;;;;;;;;;;5010823;28;20026;-73
2021/11/07 15:08:15;;;;;;;0.00;0.00;;;;;;;;;;5007592;28;20036;-73
2021/11/07 15:10:52;;;;;;;0.10;0.10;;;;;;;;;;5014113;28;20088;-73
2021/11/07 15:18:45;;;;;;;1.27;0.65;;;;;;;;;;5009890;28;20061;-74
2021/11/07 15:21:26;;;;;;;0.17;0.17;;;;;;;;;;5007849;28;20049;-68
2021/11/07 15:23:57;;;;;;;1.40;1.30;;;;;;;;;;5014836;28;20026;-68
2021/11/07 15:26:38;;;;;;;3.53;0.80;;;;;;;;;;5013075;28;20038;-68
2021/11/07 15:29:07;;;;;;;0.20;0.20;;;;;;;;;;5013593;28;20029;-68
2021/11/07 15:31:33;;;;;;;0.88;0.25;;;;;;;;;;5016513;28;20115;-72
2021/11/07 15:34:01;;;;;;;0.00;0.00;;;;;;;;;;5012830;28;20109;-69
2021/11/07 15:36:29;;;;;;;0.25;0.13;;;;;;;;;;5009212;28;20073;-68
2021/11/07 15:39:02;;;;;;;0.00;0.00;;;;;;;;;;5008294;28;20761;-68
2021/11/07 15:41:28;;;;;;;0.03;0.03;;;;;;;;;;5009132;28;20401;-69
2021/11/07 15:43:54;;;;;;;1.10;0.63;;;;;;;;;;5009633;28;20175;-68
2021/11/07 15:46:21;;;;;;;0.03;0.03;;;;;;;;;;5006090;28;20049;-68
2021/11/07 15:48:50;;;;;;;0.15;0.15;;;;;;;;;;5011358;28;20112;-69
2021/11/07 15:52:05;;;;;;;0.43;0.43;;;;;;;;;;5010943;28;20500;-68
2021/11/07 15:54:15;;;;;;;0.80;0.80;;;;;;;;;;5005285;28;20026;-69
2021/11/07 15:56:51;;;;;;;0.10;0.10;;;;;;;;;;5009337;28;20544;-69
2021/11/07 15:59:26;;;;;;;0.30;0.30;;;;;;;;;;5002916;28;20041;-69
2021/11/07 16:02:11;;;;;;;0.08;0.08;;;;;;;;;;5010538;28;20033;-69
2021/11/07 16:07:26;;;;;;;2.72;1.98;;;;;;;;;;5009836;28;20037;-68
2021/11/07 16:10:01;;;;;;;0.10;0.10;;;;;;;;;;5006728;28;20547;-69
2021/11/07 16:12:35;;;;;;;0.00;0.00;;;;;;;;;;5008851;28;20075;-69
2021/11/07 16:15:14;;;;;;;0.63;0.63;;;;;;;;;;5014395;28;20469;-69
2021/11/07 16:17:44;;;;;;;1.98;0.10;;;;;;;;;;5009990;28;20488;-68
2021/11/07 16:20:16;;;;;;;0.28;0.20;;;;;;;;;;5010277;28;20378;-72
2021/11/07 16:22:46;;;;;;;0.40;0.40;;;;;;;;;;5021566;28;20116;-73
2021/11/07 16:25:13;;;;;;;0.43;0.40;;;;;;;;;;5016373;28;20037;-73
2021/11/07 16:27:43;;;;;;;0.05;0.05;;;;;;;;;;5011575;28;20145;-73
2021/11/07 16:30:14;;;;;;;0.38;0.38;;;;;;;;;;5012207;28;20034;-72
2021/11/07 16:35:44;;;;;;;0.00;0.00;;;;;;;;;;5010708;28;20053;-73
2021/11/07 16:43:41;;;;;;;0.13;0.13;;;;;;;;;;5013607;28;20030;-73
2021/11/07 16:46:09;;;;;;;0.00;0.00;;;;;;;;;;5007486;28;20034;-73
2021/11/07 16:48:39;;;;;;;2.13;1.10;;;;;;;;;;5007412;28;20034;-73
2021/11/07 16:51:16;;;;;;;0.43;0.38;;;;;;;;;;5013970;28;20052;-73
2021/11/07 16:53:45;;;;;;;0.00;0.00;;;;;;;;;;5010018;28;20536;-73
2021/11/07 16:56:13;;;;;;;0.30;0.30;;;;;;;;;;5010092;28;20060;-73
2021/11/07 16:59:01;;;;;;;4.00;0.77;;;;;;;;;;5008902;28;20030;-74
2021/11/07 17:04:17;;;;;;;0.10;0.10;;;;;;;;;;5009965;28;20025;-73
2021/11/07 17:06:50;;;;;;;0.47;0.47;;;;;;;;;;5009199;28;20025;-74
2021/11/07 17:11:43;;;;;;;0.20;0.20;;;;;;;;;;5008942;28;20030;-73
2021/11/07 17:14:12;;;;;;;0.55;0.47;;;;;;;;;;5009599;28;20034;-74
2021/11/07 17:16:57;;;;;;;0.05;0.05;;;;;;;;;;5009130;28;20558;-73
2021/11/07 17:19:29;;;;;;;0.20;0.20;;;;;;;;;;5009153;28;20030;-73
2021/11/07 17:27:12;;;;;;;0.00;0.00;;;;;;;;;;5002752;28;20031;-73